sensor_id;sensor_type;location;lat;lon;timestamp;pressure;altitude;pressure_sealevel;temperature;humidity
32109;BME280;18624;50.042;8.436;2023-05-24T00:01:30;100941.66;;;13.27;65.11
32109;BME280;18624;50.042;8.436;2023-05-24T00:03:56;100977.47;;;13.56;64.56
32109;BME280;18624;50.042;8.436;2023-05-24T00:06:26;100983.75;;;13.57;63.54
32109;BME280;18624;50.042;8.436;2023-05-24T00:08:53;100977.91;;;13.55;63.35
32109;BME280;18624;50.042;8.436;2023-05-24T00:11:20;100984.19;;;13.55;63.67
32109;BME280;18624;50.042;8.436;2023-05-24T00:13:48;100976.72;;;13.56;63.76
32109;BME280;18624;50.042;8.436;2023-05-24T00:16:14;100974.03;;;13.52;63.52
32109;BME280;18624;50.042;8.436;2023-05-24T00:18:41;100972.84;;;13.53;62.41
32109;BME280;18624;50.042;8.436;2023-05-24T00:21:12;100973.38;;;13.48;62.45
32109;BME280;18624;50.042;8.436;2023-05-24T00:23:40;100969.94;;;13.44;62.46
32109;BME280;18624;50.042;8.436;2023-05-24T00:26:07;100962.19;;;13.39;62.94
32109;BME280;18624;50.042;8.436;2023-05-24T00:28:35;100961.97;;;13.33;63.02
32109;BME280;18624;50.042;8.436;2023-05-24T00:31:02;100969.34;;;13.36;62.67
32109;BME280;18624;50.042;8.436;2023-05-24T00:33:28;100922.75;;;12.97;63.05
32109;BME280;18624;50.042;8.436;2023-05-24T00:35:55;100952.31;;;13.09;63.27
32109;BME280;18624;50.042;8.436;2023-05-24T00:38:22;100974.00;;;13.23;63.40
32109;BME280;18624;50.042;8.436;2023-05-24T00:40:52;100955.25;;;13.02;62.70
32109;BME280;18624;50.042;8.436;2023-05-24T00:43:19;100972.78;;;13.08;62.93
32109;BME280;18624;50.042;8.436;2023-05-24T00:45:46;100939.53;;;12.86;63.15
32109;BME280;18624;50.042;8.436;2023-05-24T00:48:13;100980.19;;;13.11;64.26
32109;BME280;18624;50.042;8.436;2023-05-24T00:50:40;100973.56;;;13.08;63.59
32109;BME280;18624;50.042;8.436;2023-05-24T00:53:08;100985.34;;;13.09;63.61
32109;BME280;18624;50.042;8.436;2023-05-24T00:55:34;100985.53;;;13.02;64.35
32109;BME280;18624;50.042;8.436;2023-05-24T00:58:04;100985.25;;;12.96;64.61
32109;BME280;18624;50.042;8.436;2023-05-24T01:00:31;100990.34;;;12.98;64.26
32109;BME280;18624;50.042;8.436;2023-05-24T01:02:57;100991.63;;;12.93;64.45
32109;BME280;18624;50.042;8.436;2023-05-24T01:05:26;100996.00;;;12.90;64.56
32109;BME280;18624;50.042;8.436;2023-05-24T01:10:58;100994.63;;;12.66;65.07
32109;BME280;18624;50.042;8.436;2023-05-24T01:13:33;101001.47;;;12.58;65.89
32109;BME280;18624;50.042;8.436;2023-05-24T01:16:09;100996.13;;;12.51;65.76
32109;BME280;18624;50.042;8.436;2023-05-24T01:18:42;100982.34;;;12.34;66.54
32109;BME280;18624;50.042;8.436;2023-05-24T01:21:37;100997.13;;;12.40;67.01
32109;BME280;18624;50.042;8.436;2023-05-24T01:24:31;100995.16;;;12.41;66.74
32109;BME280;18624;50.042;8.436;2023-05-24T01:27:13;100988.25;;;12.33;66.85
32109;BME280;18624;50.042;8.436;2023-05-24T01:29:40;100910.09;;;11.78;66.88
32109;BME280;18624;50.042;8.436;2023-05-24T01:32:07;100992.59;;;12.34;67.12
32109;BME280;18624;50.042;8.436;2023-05-24T01:34:35;100980.44;;;12.31;66.90
32109;BME280;18624;50.042;8.436;2023-05-24T01:37:01;100976.94;;;12.31;66.78
32109;BME280;18624;50.042;8.436;2023-05-24T01:39:28;100979.59;;;12.34;66.33
32109;BME280;18624;50.042;8.436;2023-05-24T01:50:00;100981.03;;;12.23;66.35
32109;BME280;18624;50.042;8.436;2023-05-24T01:52:30;100985.25;;;12.27;66.81
32109;BME280;18624;50.042;8.436;2023-05-24T01:55:02;100914.75;;;11.81;66.42
32109;BME280;18624;50.042;8.436;2023-05-24T01:57:31;100853.59;;;11.40;66.68
32109;BME280;18624;50.042;8.436;2023-05-24T02:00:00;100829.03;;;11.13;66.79
32109;BME280;18624;50.042;8.436;2023-05-24T02:02:38;100973.72;;;12.16;66.75
32109;BME280;18624;50.042;8.436;2023-05-24T02:05:06;100972.91;;;12.15;67.14
32109;BME280;18624;50.042;8.436;2023-05-24T02:07:33;100975.66;;;12.15;67.25
32109;BME280;18624;50.042;8.436;2023-05-24T02:10:00;100981.88;;;12.20;67.15
32109;BME280;18624;50.042;8.436;2023-05-24T02:12:27;100938.94;;;11.89;66.80
32109;BME280;18624;50.042;8.436;2023-05-24T02:14:53;100853.09;;;11.26;66.47
32109;BME280;18624;50.042;8.436;2023-05-24T02:17:20;100988.59;;;11.99;66.64
32109;BME280;18624;50.042;8.436;2023-05-24T02:19:47;100990.00;;;11.87;67.28
32109;BME280;18624;50.042;8.436;2023-05-24T02:22:14;100977.16;;;11.80;68.19
32109;BME280;18624;50.042;8.436;2023-05-24T02:24:41;100984.19;;;11.81;67.79
32109;BME280;18624;50.042;8.436;2023-05-24T02:27:08;100980.16;;;11.89;67.65
32109;BME280;18624;50.042;8.436;2023-05-24T02:29:35;100985.38;;;11.80;67.44
32109;BME280;18624;50.042;8.436;2023-05-24T02:32:02;100987.78;;;11.78;67.71
32109;BME280;18624;50.042;8.436;2023-05-24T02:34:29;100982.00;;;11.73;68.27
32109;BME280;18624;50.042;8.436;2023-05-24T02:36:55;100814.66;;;10.62;67.15
32109;BME280;18624;50.042;8.436;2023-05-24T02:39:22;100997.16;;;11.81;67.64
32109;BME280;18624;50.042;8.436;2023-05-24T02:41:49;100994.00;;;11.82;68.12
32109;BME280;18624;50.042;8.436;2023-05-24T02:44:15;100990.56;;;11.75;67.29
32109;BME280;18624;50.042;8.436;2023-05-24T02:46:42;100986.28;;;11.74;67.42
32109;BME280;18624;50.042;8.436;2023-05-24T02:49:09;100993.63;;;11.80;67.09
32109;BME280;18624;50.042;8.436;2023-05-24T02:51:35;100987.00;;;11.78;66.70
32109;BME280;18624;50.042;8.436;2023-05-24T02:54:02;100995.25;;;11.78;67.17
32109;BME280;18624;50.042;8.436;2023-05-24T02:56:29;100986.28;;;11.74;67.53
32109;BME280;18624;50.042;8.436;2023-05-24T02:58:55;100988.53;;;11.59;67.43
32109;BME280;18624;50.042;8.436;2023-05-24T03:01:22;100999.03;;;11.64;67.91
32109;BME280;18624;50.042;8.436;2023-05-24T03:03:51;101005.06;;;11.55;69.35
32109;BME280;18624;50.042;8.436;2023-05-24T03:06:18;101000.59;;;11.41;69.75
32109;BME280;18624;50.042;8.436;2023-05-24T03:08:45;101010.28;;;11.50;69.53
32109;BME280;18624;50.042;8.436;2023-05-24T03:11:12;101001.84;;;11.60;69.52
32109;BME280;18624;50.042;8.436;2023-05-24T03:13:40;101003.81;;;11.60;67.85
32109;BME280;18624;50.042;8.436;2023-05-24T03:58:11;101006.81;;;10.99;66.04
32109;BME280;18624;50.042;8.436;2023-05-24T04:00:38;100991.13;;;10.99;66.26
32109;BME280;18624;50.042;8.436;2023-05-24T04:03:04;100935.75;;;10.57;66.62
32109;BME280;18624;50.042;8.436;2023-05-24T04:05:32;101008.88;;;10.91;66.68
32109;BME280;18624;50.042;8.436;2023-05-24T04:07:59;101006.22;;;10.84;67.05
32109;BME280;18624;50.042;8.436;2023-05-24T04:10:25;101002.28;;;10.85;67.29
32109;BME280;18624;50.042;8.436;2023-05-24T04:12:52;100961.56;;;10.60;67.40
32109;BME280;18624;50.042;8.436;2023-05-24T04:15:18;101009.47;;;11.02;67.21
32109;BME280;18624;50.042;8.436;2023-05-24T04:17:45;101005.50;;;11.07;67.07
32109;BME280;18624;50.042;8.436;2023-05-24T04:20:14;101006.13;;;10.91;66.63
32109;BME280;18624;50.042;8.436;2023-05-24T04:22:40;101010.44;;;10.92;66.72
32109;BME280;18624;50.042;8.436;2023-05-24T04:25:07;101017.78;;;10.99;67.35
32109;BME280;18624;50.042;8.436;2023-05-24T04:27:35;101017.78;;;10.99;67.53
32109;BME280;18624;50.042;8.436;2023-05-24T04:30:02;101009.41;;;10.82;66.65
32109;BME280;18624;50.042;8.436;2023-05-24T04:32:29;101019.22;;;10.80;67.51
32109;BME280;18624;50.042;8.436;2023-05-24T04:34:55;100962.59;;;10.43;68.15
32109;BME280;18624;50.042;8.436;2023-05-24T04:37:23;101034.50;;;10.81;68.15
32109;BME280;18624;50.042;8.436;2023-05-24T04:39:50;101031.81;;;10.77;68.63
32109;BME280;18624;50.042;8.436;2023-05-24T04:42:17;101034.44;;;10.84;68.88
32109;BME280;18624;50.042;8.436;2023-05-24T04:44:43;101035.16;;;10.88;69.33
32109;BME280;18624;50.042;8.436;2023-05-24T04:47:10;101035.13;;;10.92;69.16
32109;BME280;18624;50.042;8.436;2023-05-24T04:49:38;101037.50;;;10.90;68.75
32109;BME280;18624;50.042;8.436;2023-05-24T04:52:05;101038.66;;;10.89;68.56
32109;BME280;18624;50.042;8.436;2023-05-24T04:54:33;101037.03;;;10.95;68.96
32109;BME280;18624;50.042;8.436;2023-05-24T04:57:00;101043.38;;;10.88;68.12
32109;BME280;18624;50.042;8.436;2023-05-24T04:59:26;101044.13;;;10.93;68.68
32109;BME280;18624;50.042;8.436;2023-05-24T05:01:53;101046.44;;;10.94;68.47
32109;BME280;18624;50.042;8.436;2023-05-24T05:04:20;101040.56;;;10.96;67.70
32109;BME280;18624;50.042;8.436;2023-05-24T05:06:46;101036.25;;;10.95;68.04
32109;BME280;18624;50.042;8.436;2023-05-24T05:09:13;101042.09;;;10.97;68.22
32109;BME280;18624;50.042;8.436;2023-05-24T05:11:41;101035.94;;;10.89;70.23
32109;BME280;18624;50.042;8.436;2023-05-24T05:14:08;101032.38;;;10.92;69.62
32109;BME280;18624;50.042;8.436;2023-05-24T05:16:35;101034.59;;;11.01;69.80
32109;BME280;18624;50.042;8.436;2023-05-24T05:19:02;101029.84;;;11.05;69.27
32109;BME280;18624;50.042;8.436;2023-05-24T05:21:33;101037.16;;;11.11;67.62
32109;BME280;18624;50.042;8.436;2023-05-24T05:24:00;101041.00;;;11.18;66.74
32109;BME280;18624;50.042;8.436;2023-05-24T05:26:27;101041.06;;;11.14;65.08
32109;BME280;18624;50.042;8.436;2023-05-24T05:28:55;101014.84;;;10.86;66.18
32109;BME280;18624;50.042;8.436;2023-05-24T05:31:22;101042.06;;;11.00;66.76
32109;BME280;18624;50.042;8.436;2023-05-24T05:33:48;101034.63;;;10.97;66.52
32109;BME280;18624;50.042;8.436;2023-05-24T05:36:15;101062.50;;;10.96;64.58
32109;BME280;18624;50.042;8.436;2023-05-24T05:38:42;101059.06;;;10.88;64.54
32109;BME280;18624;50.042;8.436;2023-05-24T05:41:08;101061.03;;;10.87;64.74
32109;BME280;18624;50.042;8.436;2023-05-24T05:43:35;101076.59;;;10.94;64.79
32109;BME280;18624;50.042;8.436;2023-05-24T05:46:02;101076.59;;;10.94;64.84
32109;BME280;18624;50.042;8.436;2023-05-24T05:48:29;100939.53;;;10.09;64.63
32109;BME280;18624;50.042;8.436;2023-05-24T05:50:55;101067.28;;;10.88;63.25
32109;BME280;18624;50.042;8.436;2023-05-24T05:53:22;101076.91;;;10.73;64.59
32109;BME280;18624;50.042;8.436;2023-05-24T05:55:49;101072.44;;;10.55;63.57
32109;BME280;18624;50.042;8.436;2023-05-24T05:58:16;101068.16;;;10.54;64.28
32109;BME280;18624;50.042;8.436;2023-05-24T06:00:42;101072.22;;;10.73;64.16
32109;BME280;18624;50.042;8.436;2023-05-24T06:03:09;101066.56;;;10.84;63.13
32109;BME280;18624;50.042;8.436;2023-05-24T06:05:36;101062.28;;;10.83;64.48
32109;BME280;18624;50.042;8.436;2023-05-24T06:08:03;101076.97;;;10.96;64.28
32109;BME280;18624;50.042;8.436;2023-05-24T06:10:30;101078.19;;;10.95;65.03
32109;BME280;18624;50.042;8.436;2023-05-24T06:12:56;101026.03;;;10.72;65.75
32109;BME280;18624;50.042;8.436;2023-05-24T06:15:23;101077.16;;;11.12;63.97
32109;BME280;18624;50.042;8.436;2023-05-24T06:17:49;101072.81;;;11.11;63.77
32109;BME280;18624;50.042;8.436;2023-05-24T06:20:17;101079.88;;;11.12;63.93
32109;BME280;18624;50.042;8.436;2023-05-24T06:22:44;101075.69;;;11.04;63.95
32109;BME280;18624;50.042;8.436;2023-05-24T06:25:11;101088.91;;;11.13;63.91
32109;BME280;18624;50.042;8.436;2023-05-24T06:27:44;101087.31;;;11.12;64.25
32109;BME280;18624;50.042;8.436;2023-05-24T06:30:11;101095.25;;;11.06;64.89
32109;BME280;18624;50.042;8.436;2023-05-24T06:32:38;101086.25;;;11.06;64.24
32109;BME280;18624;50.042;8.436;2023-05-24T06:35:06;101101.75;;;11.16;64.12
32109;BME280;18624;50.042;8.436;2023-05-24T06:37:33;101058.56;;;10.97;63.24
32109;BME280;18624;50.042;8.436;2023-05-24T06:40:00;101039.88;;;10.88;63.33
32109;BME280;18624;50.042;8.436;2023-05-24T06:42:27;101096.72;;;11.38;65.00
32109;BME280;18624;50.042;8.436;2023-05-24T06:44:53;101100.09;;;11.49;63.42
32109;BME280;18624;50.042;8.436;2023-05-24T06:47:20;101094.47;;;11.56;63.67
32109;BME280;18624;50.042;8.436;2023-05-24T06:49:47;101042.78;;;11.28;63.12
32109;BME280;18624;50.042;8.436;2023-05-24T06:52:15;101089.59;;;11.68;62.95
32109;BME280;18624;50.042;8.436;2023-05-24T06:54:42;101039.81;;;11.42;62.06
32109;BME280;18624;50.042;8.436;2023-05-24T06:57:08;101092.81;;;11.86;62.95
32109;BME280;18624;50.042;8.436;2023-05-24T06:59:35;101090.47;;;12.08;62.52
32109;BME280;18624;50.042;8.436;2023-05-24T07:02:01;101090.59;;;12.01;60.75
32109;BME280;18624;50.042;8.436;2023-05-24T07:04:29;101091.56;;;12.10;61.58
32109;BME280;18624;50.042;8.436;2023-05-24T07:06:57;101086.16;;;12.27;60.37
32109;BME280;18624;50.042;8.436;2023-05-24T07:09:23;101090.47;;;12.48;58.49
32109;BME280;18624;50.042;8.436;2023-05-24T07:11:50;101084.97;;;12.48;58.34
32109;BME280;18624;50.042;8.436;2023-05-24T07:14:17;101047.69;;;12.27;57.35
32109;BME280;18624;50.042;8.436;2023-05-24T07:16:44;101093.91;;;12.52;57.37
32109;BME280;18624;50.042;8.436;2023-05-24T07:19:10;101009.50;;;11.93;58.99
32109;BME280;18624;50.042;8.436;2023-05-24T07:21:38;101083.59;;;12.56;58.53
32109;BME280;18624;50.042;8.436;2023-05-24T07:24:05;101074.38;;;12.66;57.01
32109;BME280;18624;50.042;8.436;2023-05-24T07:26:32;101081.53;;;12.80;57.96
32109;BME280;18624;50.042;8.436;2023-05-24T07:28:58;101082.19;;;13.20;60.85
32109;BME280;18624;50.042;8.436;2023-05-24T07:31:25;101088.41;;;13.57;57.18
32109;BME280;18624;50.042;8.436;2023-05-24T07:33:52;101084.16;;;13.85;55.75
32109;BME280;18624;50.042;8.436;2023-05-24T07:36:19;101093.72;;;13.80;52.87
32109;BME280;18624;50.042;8.436;2023-05-24T07:38:46;101094.41;;;13.68;52.97
32109;BME280;18624;50.042;8.436;2023-05-24T07:41:13;101094.44;;;13.52;54.36
32109;BME280;18624;50.042;8.436;2023-05-24T07:43:39;101106.47;;;13.41;54.36
32109;BME280;18624;50.042;8.436;2023-05-24T07:46:05;101116.38;;;13.39;54.90
32109;BME280;18624;50.042;8.436;2023-05-24T07:48:32;101108.56;;;13.54;55.13
32109;BME280;18624;50.042;8.436;2023-05-24T07:50:59;101080.56;;;13.55;55.15
32109;BME280;18624;50.042;8.436;2023-05-24T07:53:26;101113.81;;;13.64;53.72
32109;BME280;18624;50.042;8.436;2023-05-24T07:55:52;101051.22;;;13.00;54.73
32109;BME280;18624;50.042;8.436;2023-05-24T07:58:19;101113.38;;;13.33;54.48
32109;BME280;18624;50.042;8.436;2023-05-24T08:00:45;101103.47;;;13.36;54.70
32109;BME280;18624;50.042;8.436;2023-05-24T08:03:12;101112.84;;;13.71;56.77
32109;BME280;18624;50.042;8.436;2023-05-24T08:05:40;101110.59;;;13.82;54.21
32109;BME280;18624;50.042;8.436;2023-05-24T08:08:07;101109.88;;;13.94;53.26
32109;BME280;18624;50.042;8.436;2023-05-24T08:10:33;101073.16;;;13.68;54.36
32109;BME280;18624;50.042;8.436;2023-05-24T08:13:00;101113.91;;;14.06;54.18
32109;BME280;18624;50.042;8.436;2023-05-24T08:15:26;101110.09;;;13.87;52.59
32109;BME280;18624;50.042;8.436;2023-05-24T08:17:53;101103.28;;;13.76;54.81
32109;BME280;18624;50.042;8.436;2023-05-24T08:20:19;101103.97;;;13.63;53.59
32109;BME280;18624;50.042;8.436;2023-05-24T08:22:46;101108.47;;;13.57;54.19
32109;BME280;18624;50.042;8.436;2023-05-24T08:25:16;101107.53;;;13.48;55.38
32109;BME280;18624;50.042;8.436;2023-05-24T08:27:42;101099.78;;;13.42;53.98
32109;BME280;18624;50.042;8.436;2023-05-24T08:30:09;101105.19;;;13.30;54.27
32109;BME280;18624;50.042;8.436;2023-05-24T08:32:36;101105.22;;;13.10;54.65
32109;BME280;18624;50.042;8.436;2023-05-24T08:35:04;101110.22;;;12.99;54.29
32109;BME280;18624;50.042;8.436;2023-05-24T08:37:46;101028.91;;;12.41;54.57
32109;BME280;18624;50.042;8.436;2023-05-24T08:40:14;101104.59;;;12.86;54.26
32109;BME280;18624;50.042;8.436;2023-05-24T08:42:41;101112.41;;;12.87;55.22
32109;BME280;18624;50.042;8.436;2023-05-24T08:45:10;101061.06;;;12.45;54.96
32109;BME280;18624;50.042;8.436;2023-05-24T08:47:38;101117.19;;;12.67;55.06
32109;BME280;18624;50.042;8.436;2023-05-24T08:50:06;101107.19;;;12.57;55.75
32109;BME280;18624;50.042;8.436;2023-05-24T08:52:34;101111.91;;;12.56;55.98
32109;BME280;18624;50.042;8.436;2023-05-24T08:55:03;101115.00;;;12.58;56.50
32109;BME280;18624;50.042;8.436;2023-05-24T08:57:31;101112.69;;;12.57;56.41
32109;BME280;18624;50.042;8.436;2023-05-24T08:59:59;101117.88;;;12.51;56.96
32109;BME280;18624;50.042;8.436;2023-05-24T09:02:26;101032.34;;;12.09;57.26
32109;BME280;18624;50.042;8.436;2023-05-24T09:04:53;101108.41;;;12.72;57.72
32109;BME280;18624;50.042;8.436;2023-05-24T09:07:21;101090.88;;;12.66;56.30
32109;BME280;18624;50.042;8.436;2023-05-24T09:09:59;101104.69;;;12.99;56.39
32109;BME280;18624;50.042;8.436;2023-05-24T09:12:28;101076.94;;;12.93;56.32
32109;BME280;18624;50.042;8.436;2023-05-24T09:15:05;101096.50;;;13.48;56.99
32109;BME280;18624;50.042;8.436;2023-05-24T09:17:33;101106.66;;;13.83;57.63
32109;BME280;18624;50.042;8.436;2023-05-24T09:20:00;101096.03;;;13.82;53.91
32109;BME280;18624;50.042;8.436;2023-05-24T09:22:27;101100.75;;;13.98;53.95
32109;BME280;18624;50.042;8.436;2023-05-24T09:25:03;101107.03;;;13.98;53.57
32109;BME280;18624;50.042;8.436;2023-05-24T09:27:31;101099.69;;;14.08;54.46
32109;BME280;18624;50.042;8.436;2023-05-24T09:29:58;101013.84;;;13.64;54.82
32109;BME280;18624;50.042;8.436;2023-05-24T09:32:24;101112.50;;;14.43;54.82
32109;BME280;18624;50.042;8.436;2023-05-24T09:34:52;101102.53;;;14.75;54.28
32109;BME280;18624;50.042;8.436;2023-05-24T09:37:22;101104.88;;;14.89;54.19
32109;BME280;18624;50.042;8.436;2023-05-24T09:39:57;101105.66;;;15.03;52.71
32109;BME280;18624;50.042;8.436;2023-05-24T09:42:25;101099.91;;;15.10;51.90
32109;BME280;18624;50.042;8.436;2023-05-24T09:47:35;101104.31;;;15.07;50.92
32109;BME280;18624;50.042;8.436;2023-05-24T09:50:04;101098.59;;;15.14;53.24
32109;BME280;18624;50.042;8.436;2023-05-24T09:52:35;101090.63;;;15.29;51.05
32109;BME280;18624;50.042;8.436;2023-05-24T09:55:13;101084.22;;;15.45;51.02
32109;BME280;18624;50.042;8.436;2023-05-24T09:57:42;101081.00;;;15.47;49.12
32109;BME280;18624;50.042;8.436;2023-05-24T10:00:09;101077.94;;;15.32;50.83
32109;BME280;18624;50.042;8.436;2023-05-24T10:02:44;101079.56;;;15.42;51.01
32109;BME280;18624;50.042;8.436;2023-05-24T10:05:19;101068.91;;;15.53;51.57
32109;BME280;18624;50.042;8.436;2023-05-24T10:07:46;101076.22;;;15.73;50.42
32109;BME280;18624;50.042;8.436;2023-05-24T10:10:13;101066.88;;;15.79;49.43
32109;BME280;18624;50.042;8.436;2023-05-24T10:12:40;101065.91;;;15.73;49.43
32109;BME280;18624;50.042;8.436;2023-05-24T10:15:09;101067.38;;;15.52;49.26
32109;BME280;18624;50.042;8.436;2023-05-24T10:17:36;101076.34;;;15.43;48.41
32109;BME280;18624;50.042;8.436;2023-05-24T10:20:03;101077.38;;;15.24;49.55
32109;BME280;18624;50.042;8.436;2023-05-24T10:22:36;101082.78;;;15.28;50.86
32109;BME280;18624;50.042;8.436;2023-05-24T10:25:06;101078.34;;;15.43;50.40
32109;BME280;18624;50.042;8.436;2023-05-24T10:27:34;101063.31;;;15.44;49.16
32109;BME280;18624;50.042;8.436;2023-05-24T10:30:15;101069.91;;;15.59;50.08
32109;BME280;18624;50.042;8.436;2023-05-24T10:32:45;101073.09;;;15.58;48.44
32109;BME280;18624;50.042;8.436;2023-05-24T10:35:13;101070.03;;;15.56;47.90
32109;BME280;18624;50.042;8.436;2023-05-24T10:37:41;101066.28;;;15.50;47.85
32109;BME280;18624;50.042;8.436;2023-05-24T10:40:18;101054.63;;;15.20;48.94
32109;BME280;18624;50.042;8.436;2023-05-24T10:42:46;101029.38;;;15.09;49.31
32109;BME280;18624;50.042;8.436;2023-05-24T10:47:48;101053.19;;;15.28;48.81
32109;BME280;18624;50.042;8.436;2023-05-24T10:50:16;101047.22;;;15.30;49.44
32109;BME280;18624;50.042;8.436;2023-05-24T10:52:43;101052.16;;;15.35;49.25
32109;BME280;18624;50.042;8.436;2023-05-24T10:55:10;101044.22;;;15.37;49.78
32109;BME280;18624;50.042;8.436;2023-05-24T10:57:38;101041.28;;;15.53;49.11
32109;BME280;18624;50.042;8.436;2023-05-24T11:03:08;101043.78;;;15.86;48.28
32109;BME280;18624;50.042;8.436;2023-05-24T11:08:12;101041.44;;;15.84;47.05
32109;BME280;18624;50.042;8.436;2023-05-24T11:10:39;100954.59;;;15.38;48.00
32109;BME280;18624;50.042;8.436;2023-05-24T11:13:09;101033.66;;;15.92;47.13
32109;BME280;18624;50.042;8.436;2023-05-24T11:15:36;101048.13;;;15.96;47.32
32109;BME280;18624;50.042;8.436;2023-05-24T11:20:37;101029.22;;;15.73;47.37
32109;BME280;18624;50.042;8.436;2023-05-24T11:23:04;101030.78;;;15.61;47.91
32109;BME280;18624;50.042;8.436;2023-05-24T11:25:32;101036.88;;;15.68;48.95
32109;BME280;18624;50.042;8.436;2023-05-24T11:27:59;101034.09;;;15.68;47.02
32109;BME280;18624;50.042;8.436;2023-05-24T11:30:27;101030.47;;;15.59;46.82
32109;BME280;18624;50.042;8.436;2023-05-24T11:32:55;101032.41;;;15.36;46.49
32109;BME280;18624;50.042;8.436;2023-05-24T11:35:22;101032.06;;;15.34;47.19
32109;BME280;18624;50.042;8.436;2023-05-24T11:37:53;101032.91;;;15.44;46.92
32109;BME280;18624;50.042;8.436;2023-05-24T11:40:19;101033.25;;;15.46;45.86
32109;BME280;18624;50.042;8.436;2023-05-24T11:42:46;100983.81;;;15.26;47.96
32109;BME280;18624;50.042;8.436;2023-05-24T11:45:12;101021.25;;;15.62;47.41
32109;BME280;18624;50.042;8.436;2023-05-24T11:47:40;101016.94;;;15.74;48.17
32109;BME280;18624;50.042;8.436;2023-05-24T11:50:07;101023.19;;;15.87;46.10
32109;BME280;18624;50.042;8.436;2023-05-24T11:52:38;101026.47;;;15.94;45.61
32109;BME280;18624;50.042;8.436;2023-05-24T11:55:06;101026.31;;;15.98;46.91
32109;BME280;18624;50.042;8.436;2023-05-24T11:57:36;101028.53;;;16.03;46.16
32109;BME280;18624;50.042;8.436;2023-05-24T12:00:05;101015.31;;;16.07;46.05
32109;BME280;18624;50.042;8.436;2023-05-24T12:02:36;101017.53;;;16.12;44.86
32109;BME280;18624;50.042;8.436;2023-05-24T12:05:07;101017.19;;;16.10;45.47
32109;BME280;18624;50.042;8.436;2023-05-24T12:07:35;101010.38;;;16.02;44.91
32109;BME280;18624;50.042;8.436;2023-05-24T12:10:06;101014.38;;;16.01;46.01
32109;BME280;18624;50.042;8.436;2023-05-24T12:12:33;101023.72;;;15.94;45.68
32109;BME280;18624;50.042;8.436;2023-05-24T12:15:11;100968.75;;;15.62;44.70
32109;BME280;18624;50.042;8.436;2023-05-24T12:17:39;101009.13;;;15.94;44.76
32109;BME280;18624;50.042;8.436;2023-05-24T12:20:08;101007.50;;;15.84;46.55
32109;BME280;18624;50.042;8.436;2023-05-24T12:22:35;101016.63;;;15.93;45.28
32109;BME280;18624;50.042;8.436;2023-05-24T12:25:02;101014.66;;;15.94;44.28
32109;BME280;18624;50.042;8.436;2023-05-24T12:27:29;100998.47;;;15.70;44.48
32109;BME280;18624;50.042;8.436;2023-05-24T12:30:05;100957.81;;;15.36;44.60
32109;BME280;18624;50.042;8.436;2023-05-24T12:32:32;101019.72;;;15.74;43.69
32109;BME280;18624;50.042;8.436;2023-05-24T12:34:58;101014.88;;;15.52;44.28
32109;BME280;18624;50.042;8.436;2023-05-24T12:37:25;101010.38;;;15.45;44.14
32109;BME280;18624;50.042;8.436;2023-05-24T12:39:55;101020.97;;;15.47;45.09
32109;BME280;18624;50.042;8.436;2023-05-24T12:42:22;101013.22;;;15.55;45.35
32109;BME280;18624;50.042;8.436;2023-05-24T12:44:49;101015.41;;;15.60;44.85
32109;BME280;18624;50.042;8.436;2023-05-24T12:47:18;101002.28;;;15.51;44.60
32109;BME280;18624;50.042;8.436;2023-05-24T12:49:44;101000.41;;;15.48;44.74
32109;BME280;18624;50.042;8.436;2023-05-24T12:52:12;100958.09;;;15.16;45.69
32109;BME280;18624;50.042;8.436;2023-05-24T12:54:39;101012.00;;;15.56;45.47
32109;BME280;18624;50.042;8.436;2023-05-24T12:57:05;100990.97;;;15.36;44.69
32109;BME280;18624;50.042;8.436;2023-05-24T12:59:32;100990.41;;;15.41;45.44
32109;BME280;18624;50.042;8.436;2023-05-24T13:01:59;100992.41;;;15.41;45.02
32109;BME280;18624;50.042;8.436;2023-05-24T13:04:26;101000.75;;;15.50;45.11
32109;BME280;18624;50.042;8.436;2023-05-24T13:06:53;101007.91;;;15.60;45.82
32109;BME280;18624;50.042;8.436;2023-05-24T13:09:20;101005.06;;;15.51;45.38
32109;BME280;18624;50.042;8.436;2023-05-24T13:11:48;101002.22;;;15.42;45.87
32109;BME280;18624;50.042;8.436;2023-05-24T13:14:15;100972.22;;;15.31;47.06
32109;BME280;18624;50.042;8.436;2023-05-24T13:16:42;101001.56;;;15.38;46.89
32109;BME280;18624;50.042;8.436;2023-05-24T13:19:09;100948.66;;;15.05;46.96
32109;BME280;18624;50.042;8.436;2023-05-24T13:21:36;100994.53;;;15.24;46.81
32109;BME280;18624;50.042;8.436;2023-05-24T13:24:03;101006.44;;;15.34;47.33
32109;BME280;18624;50.042;8.436;2023-05-24T13:26:31;101004.91;;;15.33;47.40
32109;BME280;18624;50.042;8.436;2023-05-24T13:29:03;100993.19;;;15.29;47.30
32109;BME280;18624;50.042;8.436;2023-05-24T13:31:50;100932.78;;;14.83;48.24
32109;BME280;18624;50.042;8.436;2023-05-24T13:34:17;100994.66;;;15.20;47.59
32109;BME280;18624;50.042;8.436;2023-05-24T13:36:44;100985.06;;;15.12;47.27
32109;BME280;18624;50.042;8.436;2023-05-24T13:39:11;100998.53;;;15.23;47.53
32109;BME280;18624;50.042;8.436;2023-05-24T13:41:42;100991.00;;;15.24;47.68
32109;BME280;18624;50.042;8.436;2023-05-24T13:44:10;100988.81;;;15.18;47.00
32109;BME280;18624;50.042;8.436;2023-05-24T13:46:37;100990.56;;;15.12;47.84
32109;BME280;18624;50.042;8.436;2023-05-24T13:49:04;100998.53;;;15.23;47.78
32109;BME280;18624;50.042;8.436;2023-05-24T13:51:31;101000.50;;;15.23;47.28
32109;BME280;18624;50.042;8.436;2023-05-24T13:53:58;100994.66;;;15.20;47.67
32109;BME280;18624;50.042;8.436;2023-05-24T13:56:25;100983.63;;;15.08;47.13
32109;BME280;18624;50.042;8.436;2023-05-24T13:58:57;100989.78;;;15.25;47.48
32109;BME280;18624;50.042;8.436;2023-05-24T14:01:25;100980.72;;;15.24;46.85